createdAt,value
2023-02-08T00:00:49.945Z,33.73
2023-02-08T00:03:11.786Z,32.13
2023-02-08T00:05:33.381Z,37.77
2023-02-08T00:07:54.835Z,29.87
2023-02-08T00:10:16.325Z,30.13
2023-02-08T00:12:37.963Z,31.20
2023-02-08T00:14:59.570Z,36.63
2023-02-08T00:17:21.032Z,31.93
2023-02-08T00:19:42.617Z,29.40
2023-02-08T00:22:04.152Z,31.83
2023-02-08T00:24:25.597Z,25.00
2023-02-08T00:26:47.052Z,22.93
2023-02-08T00:29:08.493Z,24.20
2023-02-08T00:31:30.128Z,23.73
2023-02-08T00:33:51.597Z,23.80
2023-02-08T00:36:13.137Z,25.70
2023-02-08T00:38:35.518Z,24.03
2023-02-08T00:40:57.084Z,26.77
2023-02-08T00:43:18.622Z,38.53
2023-02-08T00:45:40.120Z,36.60
2023-02-08T00:48:01.561Z,32.47
2023-02-08T00:50:22.974Z,26.97
2023-02-08T00:52:44.479Z,30.43
2023-02-08T00:55:06.531Z,32.47
2023-02-08T00:57:27.993Z,31.43
2023-02-08T00:59:49.484Z,34.17
2023-02-08T01:02:11.177Z,32.50
2023-02-08T01:04:32.629Z,34.57
2023-02-08T01:06:54.138Z,35.07
2023-02-08T01:09:15.722Z,28.83
2023-02-08T01:11:37.178Z,25.93
2023-02-08T01:13:58.661Z,27.20
2023-02-08T01:16:23.144Z,23.93
2023-02-08T01:18:47.144Z,26.90
2023-02-08T01:21:12.266Z,22.97
2023-02-08T01:23:33.729Z,24.57
2023-02-08T01:25:55.136Z,28.03
2023-02-08T01:28:16.628Z,24.07
2023-02-08T01:30:38.343Z,21.97
2023-02-08T01:33:00.201Z,26.63
2023-02-08T01:35:21.630Z,20.30
2023-02-08T01:37:43.070Z,21.50
2023-02-08T01:40:04.846Z,21.77
2023-02-08T01:42:26.324Z,22.30
2023-02-08T01:45:15.499Z,19.90
2023-02-08T01:47:36.978Z,20.17
2023-02-08T01:49:58.458Z,19.23
2023-02-08T01:52:24.775Z,22.73
2023-02-08T01:55:15.947Z,28.13
2023-02-08T01:57:37.593Z,67.33
2023-02-08T02:00:04.356Z,56.37
2023-02-08T02:02:26.457Z,51.37
2023-02-08T02:04:49.583Z,39.60
2023-02-08T02:07:12.668Z,46.20
2023-02-08T02:09:43.993Z,49.57
2023-02-08T02:12:08.442Z,79.50
2023-02-08T02:14:31.175Z,58.43
2023-02-08T02:16:52.612Z,71.40
2023-02-08T02:19:47.361Z,52.60
2023-02-08T02:22:39.698Z,52.57
2023-02-08T02:25:32.936Z,40.90
2023-02-08T02:27:57.360Z,35.37
2023-02-08T02:30:44.321Z,30.03
2023-02-08T02:33:11.765Z,41.10
2023-02-08T02:35:54.766Z,35.87
2023-02-08T02:38:37.803Z,26.60
2023-02-08T02:41:14.760Z,29.53
2023-02-08T02:43:46.571Z,36.87
2023-02-08T02:46:24.267Z,33.00
2023-02-08T02:48:53.446Z,19.33
2023-02-08T02:51:25.346Z,24.70
2023-02-08T02:54:00.171Z,22.23
2023-02-08T02:56:25.695Z,18.13
2023-02-08T02:58:47.273Z,21.47
2023-02-08T03:01:08.747Z,29.63
2023-02-08T03:03:33.315Z,35.40
2023-02-08T03:06:01.027Z,31.37
2023-02-08T03:08:50.289Z,31.00
2023-02-08T03:11:20.733Z,24.87
2023-02-08T03:13:47.986Z,25.57
2023-02-08T03:16:28.293Z,25.07
2023-02-08T03:19:01.654Z,25.47
2023-02-08T03:21:42.319Z,23.53
2023-02-08T03:24:57.102Z,20.00
2023-02-08T03:27:27.581Z,17.57
2023-02-08T03:29:59.536Z,17.67
2023-02-08T03:32:34.723Z,15.30
2023-02-08T03:35:32.941Z,16.10
2023-02-08T03:38:00.517Z,14.20
2023-02-08T03:40:32.678Z,16.00
2023-02-08T03:42:58.219Z,15.93
2023-02-08T03:45:23.989Z,16.30
2023-02-08T03:47:49.427Z,17.10
2023-02-08T03:50:14.366Z,16.60
2023-02-08T03:52:36.583Z,15.83
2023-02-08T03:55:04.277Z,16.90
2023-02-08T03:57:34.846Z,16.97
2023-02-08T04:00:09.146Z,18.10
2023-02-08T04:02:36.244Z,16.30
2023-02-08T04:05:00.571Z,17.87
2023-02-08T04:07:22.479Z,16.67
2023-02-08T04:09:44.177Z,15.93
2023-02-08T04:12:06.266Z,17.17
2023-02-08T04:14:27.736Z,18.77
2023-02-08T04:16:49.156Z,17.30
2023-02-08T04:19:10.598Z,13.53
2023-02-08T04:21:32.654Z,16.47
2023-02-08T04:23:54.098Z,15.13
2023-02-08T04:26:15.546Z,17.77
2023-02-08T04:28:37.036Z,21.03
2023-02-08T04:30:58.642Z,16.27
2023-02-08T04:33:20.107Z,16.30
2023-02-08T04:35:42.782Z,17.73
2023-02-08T04:38:04.243Z,17.67
2023-02-08T04:40:25.756Z,17.83
2023-02-08T04:42:47.207Z,18.50
2023-02-08T04:45:09.729Z,17.37
2023-02-08T04:47:31.221Z,20.90
2023-02-08T04:49:52.672Z,43.83
2023-02-08T04:52:14.091Z,25.97
2023-02-08T04:54:35.611Z,26.77
2023-02-08T04:56:57.041Z,31.93
2023-02-08T04:59:18.957Z,30.83
2023-02-08T05:01:40.428Z,30.97
2023-02-08T05:04:01.909Z,25.67
2023-02-08T05:06:23.352Z,20.90
2023-02-08T05:08:44.823Z,19.10
2023-02-08T05:11:06.355Z,23.40
2023-02-08T05:13:27.837Z,20.90
2023-02-08T05:15:49.312Z,25.23
2023-02-08T05:18:10.792Z,22.87
2023-02-08T05:20:33.728Z,23.17
2023-02-08T05:22:55.178Z,19.97
2023-02-08T05:25:18.052Z,20.33
2023-02-08T05:27:39.500Z,17.87
2023-02-08T05:30:01.000Z,21.70
2023-02-08T05:32:22.447Z,17.80
2023-02-08T05:34:43.986Z,18.13
2023-02-08T05:37:05.580Z,17.73
2023-02-08T05:39:27.032Z,18.13
2023-02-08T05:41:48.490Z,14.63
2023-02-08T05:44:10.256Z,16.77
2023-02-08T05:46:31.718Z,16.17
2023-02-08T05:48:54.144Z,16.10
2023-02-08T05:51:15.616Z,15.10
2023-02-08T05:53:37.747Z,16.03
2023-02-08T05:55:59.402Z,15.17
2023-02-08T05:58:20.905Z,18.80
2023-02-08T06:00:43.092Z,18.33
2023-02-08T06:03:04.757Z,18.53
2023-02-08T06:05:28.140Z,18.40
2023-02-08T06:07:49.555Z,17.17
2023-02-08T06:10:11.630Z,16.27
2023-02-08T06:12:33.117Z,16.33
2023-02-08T06:14:54.561Z,15.70
2023-02-08T06:17:15.985Z,15.57
2023-02-08T06:19:37.417Z,26.47
2023-02-08T06:21:58.890Z,22.97
2023-02-08T06:24:20.381Z,25.90
2023-02-08T06:26:41.906Z,30.03
2023-02-08T06:29:03.548Z,30.47
2023-02-08T06:31:25.190Z,32.90
2023-02-08T06:33:46.649Z,45.03
2023-02-08T06:36:08.466Z,42.23
2023-02-08T06:38:29.920Z,27.87
2023-02-08T06:40:51.408Z,32.50
2023-02-08T06:43:13.077Z,27.20
2023-02-08T06:45:34.727Z,20.80
2023-02-08T06:47:56.171Z,23.20
2023-02-08T06:50:17.689Z,20.80
2023-02-08T06:52:39.159Z,21.63
2023-02-08T06:55:00.614Z,19.70
2023-02-08T06:57:22.051Z,21.67
2023-02-08T06:59:43.606Z,26.50
2023-02-08T07:02:06.032Z,26.60
2023-02-08T07:04:27.526Z,23.33
2023-02-08T07:06:49.825Z,24.60
2023-02-08T07:09:11.285Z,21.80
2023-02-08T07:11:32.770Z,23.83
2023-02-08T07:13:55.200Z,21.57
2023-02-08T07:16:18.961Z,20.50
2023-02-08T07:18:40.442Z,23.57
2023-02-08T07:21:01.943Z,24.23
2023-02-08T07:23:23.854Z,24.17
2023-02-08T07:25:45.991Z,20.37
2023-02-08T07:28:07.480Z,23.57
2023-02-08T07:30:29.148Z,21.73
2023-02-08T07:32:50.675Z,42.97
2023-02-08T07:35:12.218Z,42.27
2023-02-08T07:37:33.874Z,41.87
2023-02-08T07:39:55.902Z,43.70
2023-02-08T07:42:17.474Z,38.60
2023-02-08T07:44:39.433Z,43.90
2023-02-08T07:47:02.048Z,49.93
2023-02-08T07:49:23.555Z,54.63
2023-02-08T07:51:44.993Z,51.30
2023-02-08T07:54:06.660Z,44.47
2023-02-08T07:56:28.089Z,52.47
2023-02-08T07:58:49.531Z,58.07
2023-02-08T08:01:21.910Z,64.83
2023-02-08T08:03:43.900Z,86.93
2023-02-08T08:06:05.629Z,80.63
2023-02-08T08:08:27.112Z,106.90
2023-02-08T08:10:49.516Z,130.30
2023-02-08T08:13:11.028Z,120.50
2023-02-08T08:15:32.725Z,105.07
2023-02-08T08:17:54.258Z,105.30
2023-02-08T08:20:15.867Z,122.40
2023-02-08T08:22:37.961Z,143.40
2023-02-08T08:25:00.041Z,140.60
2023-02-08T08:27:21.509Z,142.20
2023-02-08T08:29:43.007Z,119.47
2023-02-08T08:32:05.311Z,111.77
2023-02-08T08:34:30.000Z,107.97
2023-02-08T08:36:51.466Z,113.77
2023-02-08T08:39:12.965Z,119.23
2023-02-08T08:41:36.043Z,121.80
2023-02-08T08:43:57.542Z,143.70
2023-02-08T08:46:19.673Z,174.67
2023-02-08T08:48:41.151Z,171.10
2023-02-08T08:51:03.219Z,181.07
2023-02-08T08:53:25.631Z,176.03
2023-02-08T08:55:47.188Z,172.37
2023-02-08T08:58:08.607Z,156.53
2023-02-08T09:00:30.066Z,108.50
2023-02-08T09:02:51.574Z,101.10
2023-02-08T09:05:13.039Z,91.43
2023-02-08T09:07:35.364Z,100.83
2023-02-08T09:09:56.869Z,91.40
2023-02-08T09:12:18.288Z,90.63
2023-02-08T09:14:39.771Z,83.90
2023-02-08T09:17:01.253Z,84.30
2023-02-08T09:19:22.686Z,94.93
2023-02-08T09:21:44.296Z,92.80
2023-02-08T09:24:06.727Z,98.67
2023-02-08T09:26:28.880Z,83.00
2023-02-08T09:28:50.314Z,73.20
2023-02-08T09:31:24.016Z,74.23
2023-02-08T09:33:46.020Z,70.70
2023-02-08T09:36:08.599Z,66.37
2023-02-08T09:38:30.214Z,60.10
2023-02-08T09:41:18.313Z,53.23
2023-02-08T09:43:54.439Z,46.53
2023-02-08T09:46:19.292Z,16.37
2023-02-08T09:48:41.248Z,16.77
2023-02-08T09:51:11.021Z,13.13
2023-02-08T09:53:40.371Z,13.47
2023-02-08T09:56:05.890Z,13.83
2023-02-08T09:58:37.786Z,12.40
2023-02-08T10:01:00.023Z,13.60
2023-02-08T10:03:38.546Z,15.00
2023-02-08T10:06:00.624Z,12.63
2023-02-08T10:08:28.882Z,12.87
2023-02-08T10:11:19.718Z,12.87
2023-02-08T10:14:06.451Z,12.33
2023-02-08T10:17:05.140Z,9.90
2023-02-08T10:19:52.743Z,13.40
2023-02-08T10:22:36.522Z,13.40
2023-02-08T10:25:10.249Z,12.40
2023-02-08T10:27:49.784Z,10.23
2023-02-08T10:30:22.515Z,9.87
2023-02-08T10:33:09.492Z,11.70
2023-02-08T10:35:37.146Z,10.60
2023-02-08T10:37:59.078Z,12.30
2023-02-08T10:40:31.084Z,10.00
2023-02-08T10:43:09.711Z,9.43
2023-02-08T10:46:03.201Z,10.43
2023-02-08T10:49:07.540Z,11.27
2023-02-08T10:51:30.626Z,10.93
2023-02-08T10:53:53.584Z,13.00
2023-02-08T10:56:30.009Z,9.83
2023-02-08T10:58:52.241Z,11.10
2023-02-08T11:01:13.932Z,10.03
2023-02-08T11:03:38.351Z,18.20
2023-02-08T11:05:59.810Z,15.30
2023-02-08T11:08:24.432Z,10.83
2023-02-08T11:11:07.745Z,11.07
2023-02-08T11:13:41.450Z,17.07
2023-02-08T11:16:05.411Z,12.73
2023-02-08T11:18:47.217Z,9.43
2023-02-08T11:21:22.534Z,10.23
2023-02-08T11:23:51.452Z,12.20
2023-02-08T11:26:18.858Z,10.43
2023-02-08T11:28:40.626Z,12.97
2023-02-08T11:31:14.902Z,8.87
2023-02-08T11:33:36.876Z,8.23
2023-02-08T11:36:07.689Z,7.27
2023-02-08T11:38:30.465Z,9.23
2023-02-08T11:40:53.507Z,8.90
2023-02-08T11:43:23.208Z,8.43
2023-02-08T11:45:46.457Z,8.73
2023-02-08T11:48:22.554Z,8.53
2023-02-08T11:50:44.050Z,8.70
2023-02-08T11:53:21.194Z,7.93
2023-02-08T11:55:43.568Z,8.17
2023-02-08T11:58:25.524Z,9.30
2023-02-08T12:01:04.251Z,7.87
2023-02-08T12:03:33.661Z,8.60
2023-02-08T12:06:20.271Z,6.63
2023-02-08T12:08:59.856Z,6.17
2023-02-08T12:11:44.703Z,7.80
2023-02-08T12:14:40.247Z,6.07
2023-02-08T12:17:24.932Z,7.73
2023-02-08T12:19:46.301Z,7.13
2023-02-08T12:22:27.528Z,6.33
2023-02-08T12:25:27.269Z,7.70
2023-02-08T12:28:02.492Z,5.70
2023-02-08T12:30:34.079Z,6.33
2023-02-08T12:33:34.394Z,6.60
2023-02-08T12:36:31.663Z,6.70
2023-02-08T12:39:26.159Z,8.53
2023-02-08T12:41:47.812Z,7.27
2023-02-08T12:44:29.424Z,6.90
2023-02-08T12:47:01.048Z,9.00
2023-02-08T12:49:33.411Z,8.13
2023-02-08T12:52:10.426Z,8.37
2023-02-08T12:54:40.552Z,7.80
2023-02-08T12:57:03.622Z,6.33
2023-02-08T12:59:33.125Z,7.33
2023-02-08T13:02:03.689Z,4.97
2023-02-08T13:04:34.142Z,7.23
2023-02-08T13:07:13.210Z,6.03
2023-02-08T13:09:48.546Z,6.23
2023-02-08T13:12:21.753Z,7.43
2023-02-08T13:14:49.401Z,7.60
2023-02-08T13:17:13.607Z,7.67
2023-02-08T13:20:02.698Z,11.07
2023-02-08T13:22:24.899Z,6.90
2023-02-08T13:24:50.363Z,5.77
2023-02-08T13:27:19.134Z,8.07
2023-02-08T13:29:40.976Z,5.60
2023-02-08T13:32:08.253Z,5.90
2023-02-08T13:34:42.498Z,6.90
2023-02-08T13:37:24.623Z,6.67
2023-02-08T13:39:48.394Z,7.03
2023-02-08T13:42:33.089Z,5.33
2023-02-08T13:44:56.961Z,4.47
2023-02-08T13:47:31.715Z,6.53
2023-02-08T13:50:00.884Z,6.00
2023-02-08T13:52:48.887Z,5.70
2023-02-08T13:55:29.009Z,5.77
2023-02-08T13:57:55.982Z,4.50
2023-02-08T14:00:27.959Z,7.70
2023-02-08T14:03:15.688Z,5.20
2023-02-08T14:05:51.518Z,7.80
2023-02-08T14:08:31.373Z,4.73
2023-02-08T14:11:28.684Z,5.27
2023-02-08T14:13:59.774Z,4.90
2023-02-08T14:16:27.433Z,8.30
2023-02-08T14:19:04.627Z,8.63
2023-02-08T14:21:40.623Z,7.80
2023-02-08T14:24:09.176Z,4.83
2023-02-08T14:26:31.324Z,5.37
2023-02-08T14:28:59.565Z,5.17
2023-02-08T14:31:22.811Z,5.37
2023-02-08T14:33:53.744Z,5.77
2023-02-08T14:36:31.968Z,6.43
2023-02-08T14:39:08.603Z,5.23
2023-02-08T14:41:51.096Z,5.33
2023-02-08T14:44:37.468Z,4.27
2023-02-08T14:46:58.989Z,3.90
2023-02-08T14:49:20.798Z,4.83
2023-02-08T14:51:49.837Z,5.43
2023-02-08T14:54:21.480Z,5.77
2023-02-08T14:56:54.827Z,6.70
2023-02-08T14:59:20.883Z,4.20
2023-02-08T15:01:45.212Z,5.83
2023-02-08T15:04:07.450Z,6.30
2023-02-08T15:06:38.014Z,4.43
2023-02-08T15:09:00.023Z,4.50
2023-02-08T15:11:25.071Z,5.40
2023-02-08T15:13:50.134Z,6.10
2023-02-08T15:16:12.569Z,5.57
2023-02-08T15:18:34.099Z,4.70
2023-02-08T15:21:05.394Z,6.73
2023-02-08T15:23:26.863Z,6.10
2023-02-08T15:26:22.284Z,5.53
2023-02-08T15:28:44.675Z,6.00
2023-02-08T15:31:14.415Z,5.23
2023-02-08T15:33:40.266Z,5.57
2023-02-08T15:36:07.893Z,5.73
2023-02-08T15:38:30.187Z,6.10
2023-02-08T15:41:02.209Z,6.00
2023-02-08T15:43:23.631Z,5.93
2023-02-08T15:45:56.184Z,4.03
2023-02-08T15:48:17.660Z,6.50
2023-02-08T15:50:39.265Z,5.10
2023-02-08T15:53:04.491Z,4.87
2023-02-08T15:55:31.230Z,4.27
2023-02-08T15:57:55.354Z,5.03
2023-02-08T16:00:24.741Z,5.97
2023-02-08T16:02:54.702Z,4.00
2023-02-08T16:05:24.051Z,4.17
2023-02-08T16:07:46.858Z,4.57
2023-02-08T16:10:21.207Z,6.03
2023-02-08T16:12:44.719Z,4.50
2023-02-08T16:15:06.486Z,6.40
2023-02-08T16:17:46.451Z,5.60
2023-02-08T16:20:35.492Z,5.13
2023-02-08T16:23:00.120Z,6.73
2023-02-08T16:25:24.342Z,5.43
2023-02-08T16:27:48.952Z,35.20
2023-02-08T16:30:21.775Z,16.17
2023-02-08T16:32:44.471Z,11.73
2023-02-08T16:35:23.283Z,14.03
2023-02-08T16:37:44.838Z,8.83
2023-02-08T16:40:48.902Z,9.73
2023-02-08T16:43:29.787Z,8.47
2023-02-08T16:46:11.221Z,9.43
2023-02-08T16:48:35.934Z,8.63
2023-02-08T16:50:57.417Z,12.40
2023-02-08T16:53:18.843Z,10.67
2023-02-08T16:55:40.333Z,11.00
2023-02-08T16:58:01.871Z,8.70
2023-02-08T17:00:28.450Z,8.17
2023-02-08T17:02:50.549Z,11.60
2023-02-08T17:05:12.315Z,13.03
2023-02-08T17:07:33.795Z,11.67
2023-02-08T17:09:56.346Z,17.37
2023-02-08T17:12:22.757Z,11.13
2023-02-08T17:14:44.469Z,12.67
2023-02-08T17:17:05.923Z,11.53
2023-02-08T17:19:27.549Z,9.97
2023-02-08T17:21:49.022Z,11.90
2023-02-08T17:24:10.477Z,9.80
2023-02-08T17:26:39.719Z,8.80
2023-02-08T17:29:01.214Z,12.47
2023-02-08T17:31:23.615Z,10.67
2023-02-08T17:33:45.352Z,10.07
2023-02-08T17:36:09.039Z,9.40
2023-02-08T17:38:30.589Z,9.43
2023-02-08T17:40:52.049Z,8.30
2023-02-08T17:43:13.531Z,11.70
2023-02-08T17:45:39.337Z,11.17
2023-02-08T17:48:01.019Z,22.13
2023-02-08T17:50:23.253Z,17.40
2023-02-08T17:52:45.912Z,13.77
2023-02-08T17:55:09.593Z,19.80
2023-02-08T17:57:32.698Z,15.50
2023-02-08T17:59:54.111Z,12.93
2023-02-08T18:02:15.562Z,15.67
2023-02-08T18:04:37.318Z,12.13
2023-02-08T18:06:58.763Z,11.97
2023-02-08T18:09:20.301Z,13.27
2023-02-08T18:11:42.472Z,12.97
2023-02-08T18:14:03.901Z,13.10
2023-02-08T18:16:27.247Z,12.63
2023-02-08T18:18:48.864Z,11.37
2023-02-08T18:21:17.705Z,15.83
2023-02-08T18:23:39.603Z,13.97
2023-02-08T18:26:06.699Z,12.97
2023-02-08T18:28:28.180Z,18.20
2023-02-08T18:30:49.865Z,15.77
2023-02-08T18:33:12.451Z,14.77
2023-02-08T18:35:33.859Z,15.57
2023-02-08T18:37:55.282Z,16.43
2023-02-08T18:40:17.311Z,17.40
2023-02-08T18:42:38.751Z,16.80
2023-02-08T18:45:00.204Z,20.93
2023-02-08T18:47:21.874Z,22.20
2023-02-08T18:49:43.391Z,31.47
2023-02-08T18:52:04.872Z,17.20
2023-02-08T18:54:26.329Z,18.30
2023-02-08T18:56:51.834Z,17.07
2023-02-08T18:59:13.279Z,18.90
2023-02-08T19:01:35.013Z,22.67
2023-02-08T19:03:58.185Z,26.50
2023-02-08T19:06:24.386Z,27.33
2023-02-08T19:08:45.943Z,25.77
2023-02-08T19:11:26.690Z,29.53
2023-02-08T19:13:49.114Z,23.37
2023-02-08T19:16:10.997Z,24.33
2023-02-08T19:18:32.624Z,23.73
2023-02-08T19:20:54.032Z,18.33
2023-02-08T19:23:15.491Z,28.57
2023-02-08T19:25:38.685Z,26.43
2023-02-08T19:28:00.229Z,43.17
2023-02-08T19:30:22.205Z,35.20
2023-02-08T19:32:43.752Z,41.63
2023-02-08T19:35:05.301Z,26.00
2023-02-08T19:37:26.803Z,25.10
2023-02-08T19:39:48.330Z,20.37
2023-02-08T19:42:09.886Z,16.77
2023-02-08T19:44:31.423Z,19.60
2023-02-08T19:46:54.256Z,20.07
2023-02-08T19:49:16.280Z,16.17
2023-02-08T19:51:37.991Z,15.63
2023-02-08T19:54:00.969Z,11.50
2023-02-08T19:56:22.545Z,14.57
2023-02-08T19:58:44.470Z,12.93
2023-02-08T20:01:11.570Z,13.07
2023-02-08T20:03:33.087Z,12.70
2023-02-08T20:05:55.214Z,14.10
2023-02-08T20:08:17.560Z,14.40
2023-02-08T20:10:44.733Z,13.60
2023-02-08T20:13:06.701Z,17.00
2023-02-08T20:15:28.125Z,14.93
2023-02-08T20:17:49.591Z,14.80
2023-02-08T20:20:11.360Z,14.43
2023-02-08T20:22:32.853Z,14.83
2023-02-08T20:24:54.333Z,12.97
2023-02-08T20:27:15.857Z,13.27
2023-02-08T20:29:37.296Z,16.13
2023-02-08T20:31:59.542Z,14.87
2023-02-08T20:34:21.345Z,13.40
2023-02-08T20:36:49.709Z,17.17
2023-02-08T20:39:16.466Z,15.60
2023-02-08T20:41:38.538Z,15.17
2023-02-08T20:44:00.589Z,14.73
2023-02-08T20:46:24.870Z,17.43
2023-02-08T20:48:46.364Z,17.10
2023-02-08T20:51:10.891Z,13.87
2023-02-08T20:53:33.334Z,19.00
2023-02-08T20:55:54.806Z,17.00
2023-02-08T20:58:16.255Z,16.00
2023-02-08T21:00:42.716Z,18.47
2023-02-08T21:03:04.994Z,18.93
2023-02-08T21:05:26.426Z,19.23
2023-02-08T21:07:47.885Z,17.87
2023-02-08T21:10:09.460Z,18.23
2023-02-08T21:12:33.083Z,16.47
2023-02-08T21:14:54.789Z,20.40
2023-02-08T21:17:16.257Z,19.07
2023-02-08T21:19:39.574Z,19.13
2023-02-08T21:22:02.370Z,18.73
2023-02-08T21:24:24.362Z,18.53
2023-02-08T21:26:46.299Z,20.53
2023-02-08T21:29:07.829Z,21.10
2023-02-08T21:31:29.440Z,20.43
2023-02-08T21:33:51.843Z,22.90
2023-02-08T21:36:16.189Z,23.17
2023-02-08T21:38:38.506Z,21.53
2023-02-08T21:41:06.197Z,20.87
2023-02-08T21:43:27.652Z,21.47
2023-02-08T21:45:49.166Z,20.87
2023-02-08T21:48:10.624Z,23.60
2023-02-08T21:50:50.750Z,24.47
2023-02-08T21:53:32.019Z,18.93
2023-02-08T21:55:53.434Z,23.47
2023-02-08T21:58:14.887Z,24.30
2023-02-08T22:00:36.329Z,23.10
2023-02-08T22:02:57.817Z,23.10
2023-02-08T22:05:37.866Z,19.83
2023-02-08T22:07:59.584Z,20.33
2023-02-08T22:10:24.470Z,24.93
2023-02-08T22:12:47.274Z,23.67
2023-02-08T22:15:11.614Z,21.43
2023-02-08T22:17:33.055Z,23.23
2023-02-08T22:19:54.466Z,23.57
2023-02-08T22:22:15.947Z,21.53
2023-02-08T22:24:37.408Z,22.80
2023-02-08T22:26:58.869Z,22.87
2023-02-08T22:29:20.338Z,23.30
2023-02-08T22:31:41.875Z,23.57
2023-02-08T22:34:03.685Z,21.07
2023-02-08T22:36:25.138Z,22.70
2023-02-08T22:38:46.740Z,29.03
2023-02-08T22:41:13.323Z,24.10
2023-02-08T22:43:34.776Z,24.47
2023-02-08T22:45:59.852Z,25.77
2023-02-08T22:48:21.399Z,23.30
2023-02-08T22:50:43.092Z,22.37
2023-02-08T22:53:04.643Z,25.20
2023-02-08T22:55:26.850Z,25.10
2023-02-08T22:57:48.345Z,22.67
2023-02-08T23:00:10.605Z,26.50
2023-02-08T23:02:32.202Z,22.33
2023-02-08T23:04:53.783Z,24.10
2023-02-08T23:07:15.206Z,24.77
2023-02-08T23:09:36.680Z,25.17
2023-02-08T23:11:58.129Z,24.87
2023-02-08T23:14:19.690Z,22.17
2023-02-08T23:16:41.138Z,22.77
2023-02-08T23:19:03.084Z,25.07
2023-02-08T23:21:24.593Z,22.20
2023-02-08T23:23:47.871Z,24.47
2023-02-08T23:26:15.316Z,22.73
2023-02-08T23:28:37.327Z,23.03
2023-02-08T23:30:58.990Z,21.33
2023-02-08T23:33:20.521Z,25.40
2023-02-08T23:35:42.024Z,28.93
2023-02-08T23:38:03.525Z,23.10
2023-02-08T23:40:25.002Z,24.13
2023-02-08T23:42:46.684Z,25.90
2023-02-08T23:45:08.553Z,21.17
2023-02-08T23:47:30.995Z,28.83
2023-02-08T23:49:53.268Z,27.67
2023-02-08T23:52:15.020Z,25.27
2023-02-08T23:54:37.065Z,22.03
2023-02-08T23:56:58.588Z,28.43
2023-02-08T23:59:20.072Z,24.93
